Time;durP1;ratioP1;P1;durP2;ratioP2;P2;SDS_P1;SDS_P2;PMS_P1;PMS_P2;Temp;Humidity;BMP_temperature;BMP_pressure;BME280_temperature;BME280_humidity;BME280_pressure;Samples;Min_cycle;Max_cycle;Signal;HPM_P1;HPM_P2
2022/01/22 00:00:52;;;;;;;4.63;1.85;;;;;;;;;;5013400;28;104005;-75
2022/01/22 00:03:19;;;;;;;8.13;2.00;;;;;;;;;;5031673;27;100080;-75
2022/01/22 00:05:46;;;;;;;5.47;2.17;;;;;;;;;;5013391;28;100061;-75
2022/01/22 00:08:13;;;;;;;5.97;1.55;;;;;;;;;;5030166;28;100757;-75
2022/01/22 00:10:43;;;;;;;7.70;2.30;;;;;;;;;;5013511;28;100538;-76
2022/01/22 00:15:47;;;;;;;5.30;2.00;;;;;;;;;;5030771;28;100053;-76
2022/01/22 00:18:13;;;;;;;7.45;2.30;;;;;;;;;;4996839;28;100232;-76
2022/01/22 00:20:40;;;;;;;9.40;2.00;;;;;;;;;;5030273;28;100524;-75
2022/01/22 00:23:07;;;;;;;7.53;1.98;;;;;;;;;;5028772;28;100094;-76
2022/01/22 00:25:34;;;;;;;7.80;2.13;;;;;;;;;;5013923;28;100065;-75
2022/01/22 00:28:01;;;;;;;4.25;2.00;;;;;;;;;;5031099;27;100240;-75
2022/01/22 00:30:28;;;;;;;6.13;2.15;;;;;;;;;;5029802;28;100563;-75
2022/01/22 00:32:55;;;;;;;5.03;2.10;;;;;;;;;;4993727;28;100240;-75
2022/01/22 00:35:22;;;;;;;6.43;2.10;;;;;;;;;;4995741;28;100139;-75
2022/01/22 00:37:50;;;;;;;4.85;1.92;;;;;;;;;;5029521;28;101558;-75
2022/01/22 00:40:17;;;;;;;5.03;2.08;;;;;;;;;;5028082;28;101103;-75
2022/01/22 00:42:46;;;;;;;5.10;1.90;;;;;;;;;;5030289;28;100036;-75
2022/01/22 00:45:12;;;;;;;7.65;2.40;;;;;;;;;;5025882;28;101779;-75
2022/01/22 00:47:42;;;;;;;5.88;2.53;;;;;;;;;;5010098;28;100520;-76
2022/01/22 00:50:11;;;;;;;8.10;2.83;;;;;;;;;;5009680;28;100606;-75
2022/01/22 00:52:42;;;;;;;4.93;2.03;;;;;;;;;;5010887;28;101376;-75
2022/01/22 00:55:09;;;;;;;6.82;1.80;;;;;;;;;;5009743;28;100117;-75
2022/01/22 00:57:36;;;;;;;6.53;2.03;;;;;;;;;;5029706;28;100276;-75
2022/01/22 01:00:04;;;;;;;5.93;1.80;;;;;;;;;;4998378;28;100573;-75
2022/01/22 01:02:32;;;;;;;5.75;2.00;;;;;;;;;;5033259;28;100038;-75
2022/01/22 01:04:59;;;;;;;6.13;2.20;;;;;;;;;;5033243;28;99968;-76
2022/01/22 01:07:26;;;;;;;4.93;1.98;;;;;;;;;;5033072;28;100152;-75
2022/01/22 01:09:53;;;;;;;6.28;2.40;;;;;;;;;;5033807;27;100565;-76
2022/01/22 01:12:19;;;;;;;6.63;2.42;;;;;;;;;;5033092;28;100183;-75
2022/01/22 01:15:12;;;;;;;5.38;2.13;;;;;;;;;;5016534;28;100016;-75
2022/01/22 01:34:16;;;;;;;5.00;2.30;;;;;;;;;;5033217;28;100104;-76
2022/01/22 01:36:43;;;;;;;5.10;2.00;;;;;;;;;;5008062;28;102450;-75
2022/01/22 01:39:16;;;;;;;5.28;2.58;;;;;;;;;;5011825;28;100293;-75
2022/01/22 01:41:53;;;;;;;4.78;2.03;;;;;;;;;;5016498;28;101236;-75
2022/01/22 01:44:21;;;;;;;3.83;1.80;;;;;;;;;;5016958;28;100058;-75
2022/01/22 01:47:07;;;;;;;5.78;2.50;;;;;;;;;;5032517;28;100160;-75
2022/01/22 01:49:34;;;;;;;4.85;2.22;;;;;;;;;;5015973;28;100852;-75
2022/01/22 01:52:06;;;;;;;5.22;2.30;;;;;;;;;;5015669;28;100542;-75
2022/01/22 01:59:51;;;;;;;6.72;2.35;;;;;;;;;;4998558;28;100953;-76
2022/01/22 02:02:42;;;;;;;7.47;2.60;;;;;;;;;;5032130;28;100594;-75
2022/01/22 02:05:12;;;;;;;5.70;2.58;;;;;;;;;;5015805;28;100086;-75
2022/01/22 02:07:41;;;;;;;8.38;3.25;;;;;;;;;;4999098;28;100041;-75
2022/01/22 02:10:15;;;;;;;8.45;2.90;;;;;;;;;;5012438;28;100829;-76
2022/01/22 02:23:49;;;;;;;7.30;2.78;;;;;;;;;;5017093;28;100831;-75
2022/01/22 02:26:16;;;;;;;7.07;3.33;;;;;;;;;;5015224;28;100215;-75
2022/01/22 02:28:48;;;;;;;5.75;2.33;;;;;;;;;;5015683;28;100101;-75
2022/01/22 02:37:17;;;;;;;8.60;2.85;;;;;;;;;;5030930;27;101846;-76
2022/01/22 02:39:58;;;;;;;6.40;2.40;;;;;;;;;;5032078;28;100098;-75
2022/01/22 02:42:31;;;;;;;5.38;2.72;;;;;;;;;;5012799;28;100259;-75
2022/01/22 02:45:00;;;;;;;6.55;3.25;;;;;;;;;;5010778;28;101158;-75
2022/01/22 02:47:27;;;;;;;6.20;3.22;;;;;;;;;;5014824;28;100138;-75
2022/01/22 02:49:54;;;;;;;5.20;2.30;;;;;;;;;;4996096;28;100146;-74
2022/01/22 02:52:21;;;;;;;5.53;2.30;;;;;;;;;;5011511;28;100235;-74
2022/01/22 02:55:06;;;;;;;6.03;2.38;;;;;;;;;;5011065;28;100578;-76
2022/01/22 02:57:36;;;;;;;6.68;2.95;;;;;;;;;;5028563;28;100112;-75
2022/01/22 03:00:07;;;;;;;6.05;2.17;;;;;;;;;;5014982;28;100051;-75
2022/01/22 03:02:34;;;;;;;9.52;2.85;;;;;;;;;;4998445;28;100212;-74
2022/01/22 03:05:01;;;;;;;4.32;2.25;;;;;;;;;;5031071;28;100628;-74
2022/01/22 03:07:28;;;;;;;8.20;3.00;;;;;;;;;;5031756;28;100219;-74
2022/01/22 03:10:00;;;;;;;6.78;3.17;;;;;;;;;;5033059;27;100029;-75
2022/01/22 03:27:54;;;;;;;5.25;2.28;;;;;;;;;;5007432;28;100172;-74
2022/01/22 03:30:21;;;;;;;5.57;2.60;;;;;;;;;;5011276;28;100222;-75
2022/01/22 03:32:51;;;;;;;5.00;2.22;;;;;;;;;;4994224;28;101894;-75
2022/01/22 03:37:51;;;;;;;4.88;2.40;;;;;;;;;;5011278;28;100160;-75
2022/01/22 03:40:21;;;;;;;5.70;2.67;;;;;;;;;;4994947;28;100219;-76
2022/01/22 03:42:48;;;;;;;5.82;2.30;;;;;;;;;;5011600;28;102320;-76
2022/01/22 03:45:15;;;;;;;4.45;2.10;;;;;;;;;;5012633;28;100697;-76
2022/01/22 03:47:42;;;;;;;6.10;2.38;;;;;;;;;;5029388;28;100162;-76
2022/01/22 03:50:10;;;;;;;5.50;2.30;;;;;;;;;;5013473;28;100022;-76
2022/01/22 03:52:37;;;;;;;6.13;2.35;;;;;;;;;;5003126;28;100559;-76
2022/01/22 03:55:06;;;;;;;5.20;2.35;;;;;;;;;;4992203;28;100544;-76
2022/01/22 03:57:58;;;;;;;8.10;3.00;;;;;;;;;;5030118;28;100177;-76
2022/01/22 04:00:25;;;;;;;6.15;2.83;;;;;;;;;;5012996;28;101809;-75
2022/01/22 04:05:52;;;;;;;9.68;3.85;;;;;;;;;;5027837;28;100505;-75
2022/01/22 04:08:19;;;;;;;8.38;3.42;;;;;;;;;;5030384;28;100269;-76
2022/01/22 04:10:49;;;;;;;5.20;2.85;;;;;;;;;;4991714;28;99900;-75
2022/01/22 04:13:18;;;;;;;8.75;3.22;;;;;;;;;;5009775;28;100888;-75
2022/01/22 04:15:46;;;;;;;8.85;3.13;;;;;;;;;;4996042;28;104926;-75
2022/01/22 04:26:43;;;;;;;7.10;3.22;;;;;;;;;;5029158;28;100645;-75
2022/01/22 04:29:12;;;;;;;8.50;3.70;;;;;;;;;;5031629;27;99956;-76
2022/01/22 04:31:38;;;;;;;7.18;3.05;;;;;;;;;;5014084;28;99941;-75
2022/01/22 04:34:05;;;;;;;8.82;3.53;;;;;;;;;;5026941;28;100911;-75
2022/01/22 04:36:32;;;;;;;7.00;3.10;;;;;;;;;;5016639;28;100614;-75
2022/01/22 04:39:00;;;;;;;7.63;3.78;;;;;;;;;;5033398;28;100170;-75
2022/01/22 04:41:27;;;;;;;6.60;3.60;;;;;;;;;;5034603;27;99861;-77
2022/01/22 04:43:59;;;;;;;8.70;3.72;;;;;;;;;;5027967;28;100381;-76
2022/01/22 04:49:14;;;;;;;11.10;3.70;;;;;;;;;;5002455;28;100100;-76
2022/01/22 04:57:15;;;;;;;11.00;3.28;;;;;;;;;;5030625;28;100690;-75
2022/01/22 04:59:42;;;;;;;8.80;3.80;;;;;;;;;;5000492;28;100033;-76
2022/01/22 05:02:09;;;;;;;9.73;3.42;;;;;;;;;;5016375;28;100184;-76
2022/01/22 05:04:54;;;;;;;8.18;3.25;;;;;;;;;;5015510;28;100145;-76
2022/01/22 05:07:29;;;;;;;6.93;3.13;;;;;;;;;;4997279;28;100754;-76
2022/01/22 05:10:16;;;;;;;11.43;3.83;;;;;;;;;;5030826;28;100192;-75
2022/01/22 05:12:43;;;;;;;9.48;3.92;;;;;;;;;;5013441;28;100083;-75
2022/01/22 05:15:10;;;;;;;5.93;2.85;;;;;;;;;;4995372;28;102779;-76
2022/01/22 05:17:40;;;;;;;7.18;3.63;;;;;;;;;;5028293;28;101832;-76
2022/01/22 05:20:33;;;;;;;6.68;3.03;;;;;;;;;;5002975;28;100150;-75
2022/01/22 05:23:12;;;;;;;6.72;3.35;;;;;;;;;;4990936;28;100070;-76
2022/01/22 05:25:56;;;;;;;9.30;4.40;;;;;;;;;;5032618;28;100350;-76
2022/01/22 05:37:47;;;;;;;8.32;3.90;;;;;;;;;;4999848;28;100188;-75
2022/01/22 05:40:26;;;;;;;7.53;3.65;;;;;;;;;;4997517;28;100056;-75
2022/01/22 05:42:53;;;;;;;8.32;3.47;;;;;;;;;;4980184;28;100120;-75
2022/01/22 05:45:20;;;;;;;11.23;4.10;;;;;;;;;;5011997;28;100051;-75
2022/01/22 05:47:47;;;;;;;8.90;4.00;;;;;;;;;;4994966;28;100182;-75
2022/01/22 05:50:27;;;;;;;10.50;5.07;;;;;;;;;;4996020;28;100537;-75
2022/01/22 05:53:14;;;;;;;11.65;4.80;;;;;;;;;;5015701;28;100137;-75
2022/01/22 06:01:40;;;;;;;8.75;4.35;;;;;;;;;;5023196;27;102404;-75
2022/01/22 06:04:16;;;;;;;9.43;4.25;;;;;;;;;;5031797;28;100252;-75
2022/01/22 06:06:44;;;;;;;9.75;4.43;;;;;;;;;;5016149;28;100174;-75
2022/01/22 06:09:12;;;;;;;12.18;4.75;;;;;;;;;;4981631;28;103961;-76
2022/01/22 06:11:58;;;;;;;11.88;5.60;;;;;;;;;;5004164;28;101080;-76
2022/01/22 06:14:34;;;;;;;12.70;6.40;;;;;;;;;;5016625;28;100034;-76
2022/01/22 06:17:02;;;;;;;14.88;7.28;;;;;;;;;;5027864;28;101435;-76
2022/01/22 06:19:37;;;;;;;16.50;7.13;;;;;;;;;;5001679;28;102086;-76
2022/01/22 06:22:05;;;;;;;16.42;7.32;;;;;;;;;;4998829;28;100549;-76
2022/01/22 06:24:32;;;;;;;14.05;6.75;;;;;;;;;;5015147;28;100197;-77
2022/01/22 06:27:04;;;;;;;14.05;6.47;;;;;;;;;;5025206;28;103262;-74
2022/01/22 06:29:31;;;;;;;16.77;5.30;;;;;;;;;;5031040;28;101060;-76
2022/01/22 06:31:58;;;;;;;15.57;5.35;;;;;;;;;;5014714;28;103022;-76
2022/01/22 06:34:26;;;;;;;12.65;5.80;;;;;;;;;;5015633;28;100268;-75
2022/01/22 06:36:54;;;;;;;12.50;5.65;;;;;;;;;;4997215;28;100110;-75
2022/01/22 06:39:23;;;;;;;17.88;6.80;;;;;;;;;;4995027;28;100266;-76
2022/01/22 06:42:22;;;;;;;12.63;5.85;;;;;;;;;;5025451;27;103681;-76
2022/01/22 06:45:12;;;;;;;19.92;8.90;;;;;;;;;;5011072;28;100113;-76
2022/01/22 06:48:14;;;;;;;17.00;7.38;;;;;;;;;;5048888;27;100222;-77
2022/01/22 06:51:00;;;;;;;19.92;7.05;;;;;;;;;;5030745;28;100173;-76
2022/01/22 06:53:27;;;;;;;20.40;7.75;;;;;;;;;;4998159;28;100535;-75
2022/01/22 06:56:00;;;;;;;22.23;8.25;;;;;;;;;;4998205;28;102280;-76
2022/01/22 06:58:43;;;;;;;16.70;7.60;;;;;;;;;;5019011;27;100043;-75
2022/01/22 07:01:14;;;;;;;15.52;6.25;;;;;;;;;;5011138;28;100953;-76
2022/01/22 07:03:54;;;;;;;22.10;9.90;;;;;;;;;;4998936;28;102445;-76
2022/01/22 07:06:38;;;;;;;22.97;10.47;;;;;;;;;;5030387;28;100213;-75
2022/01/22 07:09:05;;;;;;;59.63;21.73;;;;;;;;;;4994729;28;100160;-76
2022/01/22 07:11:36;;;;;;;52.88;20.58;;;;;;;;;;5028313;28;101272;-76
2022/01/22 07:14:03;;;;;;;47.72;18.33;;;;;;;;;;5010058;28;102234;-75
2022/01/22 07:16:30;;;;;;;50.20;20.17;;;;;;;;;;5029188;28;100184;-76
2022/01/22 07:19:21;;;;;;;53.63;19.70;;;;;;;;;;5017288;28;100473;-75
2022/01/22 07:22:03;;;;;;;40.38;16.10;;;;;;;;;;5029114;28;100120;-76
2022/01/22 07:24:40;;;;;;;51.33;18.48;;;;;;;;;;5024681;28;101201;-75
2022/01/22 07:27:08;;;;;;;48.30;17.20;;;;;;;;;;4996101;28;102905;-79
2022/01/22 07:29:35;;;;;;;53.38;19.40;;;;;;;;;;5010342;28;100077;-75
2022/01/22 07:32:04;;;;;;;74.82;25.73;;;;;;;;;;5009572;28;100300;-76
2022/01/22 07:34:31;;;;;;;73.75;23.95;;;;;;;;;;4993979;28;101136;-75
2022/01/22 07:37:10;;;;;;;77.13;24.02;;;;;;;;;;5012655;28;100203;-75
2022/01/22 07:39:37;;;;;;;59.13;18.23;;;;;;;;;;5030162;28;100006;-74
2022/01/22 07:42:37;;;;;;;45.17;14.57;;;;;;;;;;5017881;28;100228;-75
2022/01/22 07:45:27;;;;;;;32.67;12.60;;;;;;;;;;5029062;28;101729;-75
2022/01/22 07:48:05;;;;;;;28.20;10.65;;;;;;;;;;5009924;28;100066;-76
2022/01/22 07:50:58;;;;;;;26.67;10.07;;;;;;;;;;5029780;28;100064;-75
2022/01/22 07:53:25;;;;;;;24.20;9.10;;;;;;;;;;5012525;28;100569;-75
2022/01/22 07:55:53;;;;;;;23.40;8.55;;;;;;;;;;5003491;28;103553;-75
2022/01/22 07:58:20;;;;;;;21.60;9.73;;;;;;;;;;5011260;28;100148;-76
2022/01/22 08:00:47;;;;;;;24.13;9.02;;;;;;;;;;4993551;28;99984;-76
2022/01/22 08:03:15;;;;;;;23.40;9.80;;;;;;;;;;5019364;28;101686;-76
2022/01/22 08:06:20;;;;;;;;;;;;;;;;;;5029249;28;100555;-75
2022/01/22 08:09:05;;;;;;;18.33;7.32;;;;;;;;;;5011870;28;100287;-75
2022/01/22 08:12:01;;;;;;;16.40;7.43;;;;;;;;;;5042910;27;100157;-76
2022/01/22 08:14:28;;;;;;;19.48;7.80;;;;;;;;;;5013128;28;100443;-74
2022/01/22 08:16:55;;;;;;;14.23;7.05;;;;;;;;;;5030353;28;100586;-75
2022/01/22 08:19:27;;;;;;;22.17;7.90;;;;;;;;;;5014358;28;100652;-75
2022/01/22 08:21:54;;;;;;;21.30;7.90;;;;;;;;;;5030438;28;100261;-74
2022/01/22 08:24:40;;;;;;;13.75;6.30;;;;;;;;;;5031229;28;99961;-76
2022/01/22 08:29:57;;;;;;;25.73;7.60;;;;;;;;;;5030912;28;99889;-76
2022/01/22 08:37:38;;;;;;;15.55;7.18;;;;;;;;;;5029806;28;100670;-76
2022/01/22 08:40:06;;;;;;;17.75;6.85;;;;;;;;;;5013745;28;100130;-76
2022/01/22 08:42:35;;;;;;;18.48;7.72;;;;;;;;;;5014034;28;99979;-76
2022/01/22 08:45:02;;;;;;;20.05;7.78;;;;;;;;;;5030693;27;100783;-74
2022/01/22 08:47:28;;;;;;;15.50;6.72;;;;;;;;;;4978140;28;102112;-74
2022/01/22 08:49:55;;;;;;;15.35;6.93;;;;;;;;;;4993774;28;100069;-75
2022/01/22 08:52:27;;;;;;;14.50;6.95;;;;;;;;;;5010816;28;99979;-74
2022/01/22 08:54:54;;;;;;;14.85;7.13;;;;;;;;;;5009444;28;100211;-75
2022/01/22 08:57:25;;;;;;;18.00;7.22;;;;;;;;;;4993561;28;100562;-75
2022/01/22 09:00:12;;;;;;;19.42;6.85;;;;;;;;;;5008792;28;100151;-75
2022/01/22 09:02:49;;;;;;;17.65;7.85;;;;;;;;;;5010116;28;100046;-76
2022/01/22 09:05:36;;;;;;;23.17;8.80;;;;;;;;;;5009916;28;100198;-75
2022/01/22 09:08:24;;;;;;;22.08;8.65;;;;;;;;;;5029221;28;101133;-76
2022/01/22 09:11:14;;;;;;;21.38;8.70;;;;;;;;;;5030504;27;101188;-76
2022/01/22 09:14:04;;;;;;;20.15;7.93;;;;;;;;;;5030966;28;100065;-75
2022/01/22 09:16:38;;;;;;;19.45;7.95;;;;;;;;;;5013537;28;100108;-76
2022/01/22 09:19:07;;;;;;;18.88;8.20;;;;;;;;;;5029837;28;100690;-76
2022/01/22 09:21:34;;;;;;;22.98;8.73;;;;;;;;;;4997317;28;100063;-75
2022/01/22 09:24:01;;;;;;;25.98;10.07;;;;;;;;;;4999600;28;99899;-75
2022/01/22 09:26:29;;;;;;;22.35;9.98;;;;;;;;;;5012254;28;100109;-75
2022/01/22 09:28:58;;;;;;;28.38;10.35;;;;;;;;;;4996433;28;100526;-76
2022/01/22 09:31:26;;;;;;;27.90;10.85;;;;;;;;;;4996965;28;99974;-75
2022/01/22 09:33:56;;;;;;;21.92;9.20;;;;;;;;;;4995906;28;100223;-76
2022/01/22 09:36:41;;;;;;;23.65;11.90;;;;;;;;;;5030275;28;100291;-75
2022/01/22 09:39:33;;;;;;;25.08;11.05;;;;;;;;;;5032489;28;100594;-75
2022/01/22 09:42:08;;;;;;;29.50;12.07;;;;;;;;;;5033101;28;100060;-76
2022/01/22 09:44:52;;;;;;;36.22;14.35;;;;;;;;;;5018781;28;100299;-76
2022/01/22 09:47:46;;;;;;;25.42;10.50;;;;;;;;;;4995800;28;100692;-76
2022/01/22 09:50:22;;;;;;;26.38;10.48;;;;;;;;;;4996906;28;102057;-75
2022/01/22 09:52:59;;;;;;;29.67;10.85;;;;;;;;;;4996967;28;99981;-75
2022/01/22 09:55:44;;;;;;;21.73;10.32;;;;;;;;;;5013875;28;100080;-76
2022/01/22 09:58:24;;;;;;;27.70;9.98;;;;;;;;;;5011903;28;100385;-76
2022/01/22 10:01:22;;;;;;;24.15;10.45;;;;;;;;;;4997587;28;100572;-76
2022/01/22 10:03:51;;;;;;;17.98;8.25;;;;;;;;;;5011979;28;100251;-76
2022/01/22 10:06:52;;;;;;;16.90;7.18;;;;;;;;;;5016517;28;100083;-75
2022/01/22 10:09:34;;;;;;;16.88;7.43;;;;;;;;;;5012088;28;100629;-75
2022/01/22 10:12:19;;;;;;;16.75;7.05;;;;;;;;;;5012428;28;100677;-75
2022/01/22 10:15:14;;;;;;;21.07;7.77;;;;;;;;;;5011898;28;100260;-75
2022/01/22 10:17:42;;;;;;;23.77;8.98;;;;;;;;;;5013739;28;99991;-75
2022/01/22 10:20:22;;;;;;;21.27;10.00;;;;;;;;;;5011065;28;100256;-75
2022/01/22 10:22:52;;;;;;;21.92;8.73;;;;;;;;;;5013196;28;100664;-75
2022/01/22 10:25:25;;;;;;;24.90;11.73;;;;;;;;;;5011897;28;100203;-75
2022/01/22 10:27:59;;;;;;;25.60;11.35;;;;;;;;;;5011903;28;100213;-75
2022/01/22 10:30:36;;;;;;;22.63;9.95;;;;;;;;;;5013098;28;100184;-75
2022/01/22 10:36:21;;;;;;;;;;;;;;;;;;5012204;28;100429;-75
2022/01/22 10:39:21;;;;;;;20.20;8.65;;;;;;;;;;5012777;28;100045;-75
2022/01/22 10:41:49;;;;;;;16.63;8.02;;;;;;;;;;5011665;28;100385;-76
2022/01/22 10:44:21;;;;;;;21.73;9.05;;;;;;;;;;5011708;28;100603;-75
2022/01/22 10:47:02;;;;;;;21.15;9.55;;;;;;;;;;5009788;28;100004;-76
2022/01/22 10:49:29;;;;;;;22.20;9.18;;;;;;;;;;4980664;28;100053;-76
2022/01/22 10:51:57;;;;;;;17.60;7.95;;;;;;;;;;4999097;28;100118;-75
2022/01/22 10:54:28;;;;;;;21.42;7.88;;;;;;;;;;5046640;27;100686;-76
2022/01/22 10:56:56;;;;;;;12.95;5.45;;;;;;;;;;5031741;28;100058;-75
2022/01/22 10:59:22;;;;;;;14.27;5.97;;;;;;;;;;5015339;28;99930;-75
2022/01/22 11:01:51;;;;;;;17.60;6.47;;;;;;;;;;5032324;27;100264;-75
2022/01/22 11:04:19;;;;;;;14.02;6.05;;;;;;;;;;5031711;28;100576;-75
2022/01/22 11:06:54;;;;;;;10.10;4.65;;;;;;;;;;5025740;28;100039;-75
2022/01/22 11:09:41;;;;;;;10.55;4.75;;;;;;;;;;5017947;28;100202;-75
2022/01/22 11:12:08;;;;;;;11.30;4.40;;;;;;;;;;5012073;28;100367;-75
2022/01/22 11:14:38;;;;;;;11.13;4.63;;;;;;;;;;5011094;28;100603;-75
2022/01/22 11:17:06;;;;;;;10.98;4.22;;;;;;;;;;5005109;28;100738;-76
2022/01/22 11:19:33;;;;;;;12.63;5.05;;;;;;;;;;5032629;27;100172;-76
2022/01/22 11:22:16;;;;;;;14.02;5.75;;;;;;;;;;5014422;28;101307;-75
2022/01/22 11:24:44;;;;;;;13.10;5.88;;;;;;;;;;5013512;28;100708;-76
2022/01/22 11:27:16;;;;;;;13.35;4.93;;;;;;;;;;5018493;28;100634;-76
2022/01/22 11:30:04;;;;;;;14.00;5.10;;;;;;;;;;5020431;28;100033;-76
2022/01/22 11:32:34;;;;;;;10.27;4.35;;;;;;;;;;5030616;28;100106;-75
2022/01/22 11:35:05;;;;;;;12.05;4.90;;;;;;;;;;5010623;28;101105;-75
2022/01/22 11:38:00;;;;;;;8.93;3.88;;;;;;;;;;4993785;28;100152;-75
2022/01/22 11:40:29;;;;;;;9.77;4.47;;;;;;;;;;5030677;28;100100;-75
2022/01/22 11:43:21;;;;;;;10.02;4.40;;;;;;;;;;5030664;28;100842;-75
2022/01/22 11:45:54;;;;;;;11.25;4.45;;;;;;;;;;5028293;28;101402;-75
2022/01/22 11:48:27;;;;;;;13.07;4.55;;;;;;;;;;5015959;28;102830;-75
2022/01/22 11:51:23;;;;;;;10.45;3.88;;;;;;;;;;5027337;28;100101;-75
2022/01/22 11:53:54;;;;;;;8.68;4.15;;;;;;;;;;5029317;28;100209;-75
2022/01/22 11:56:25;;;;;;;12.45;4.82;;;;;;;;;;5031580;28;101306;-76
2022/01/22 11:58:58;;;;;;;11.85;4.10;;;;;;;;;;5030658;28;100176;-75
2022/01/22 12:01:41;;;;;;;10.05;4.07;;;;;;;;;;5029641;28;100136;-75
2022/01/22 12:04:10;;;;;;;11.55;4.38;;;;;;;;;;5029056;28;101158;-75
2022/01/22 12:07:02;;;;;;;9.88;3.80;;;;;;;;;;5029828;28;100548;-75
2022/01/22 12:09:52;;;;;;;10.68;3.65;;;;;;;;;;5031300;28;100172;-75
2022/01/22 12:15:15;;;;;;;9.50;3.63;;;;;;;;;;5029627;28;100245;-76
2022/01/22 12:18:01;;;;;;;17.73;5.07;;;;;;;;;;5029137;28;100685;-76
2022/01/22 12:23:16;;;;;;;9.45;4.03;;;;;;;;;;5031415;27;99966;-75
2022/01/22 12:25:43;;;;;;;11.73;3.60;;;;;;;;;;5030887;28;100261;-75
2022/01/22 12:28:30;;;;;;;10.20;3.22;;;;;;;;;;5030819;28;101074;-76
2022/01/22 12:31:05;;;;;;;7.43;3.53;;;;;;;;;;5011979;28;100231;-75
2022/01/22 12:33:32;;;;;;;11.20;3.55;;;;;;;;;;5012429;28;99985;-75
2022/01/22 12:36:00;;;;;;;10.88;4.15;;;;;;;;;;5028603;28;102568;-75
2022/01/22 12:44:13;;;;;;;11.05;3.72;;;;;;;;;;5015900;28;100084;-75
2022/01/22 12:46:50;;;;;;;11.35;3.70;;;;;;;;;;5027776;28;100587;-75
2022/01/22 12:49:17;;;;;;;10.00;3.35;;;;;;;;;;5011590;28;101136;-76
2022/01/22 12:51:44;;;;;;;12.02;4.32;;;;;;;;;;5011614;28;99960;-75
2022/01/22 12:54:11;;;;;;;11.40;3.47;;;;;;;;;;5012205;28;100045;-75
2022/01/22 12:57:05;;;;;;;11.90;4.35;;;;;;;;;;5014363;28;100218;-76
2022/01/22 12:59:34;;;;;;;13.35;5.20;;;;;;;;;;5015164;28;101364;-76
2022/01/22 13:02:01;;;;;;;12.52;3.88;;;;;;;;;;5032712;28;100191;-75
2022/01/22 13:04:28;;;;;;;9.05;3.20;;;;;;;;;;4999614;28;99987;-75
2022/01/22 13:07:18;;;;;;;10.63;2.95;;;;;;;;;;5029603;28;100166;-75
2022/01/22 13:10:07;;;;;;;9.10;3.25;;;;;;;;;;5032724;28;100612;-75
2022/01/22 13:12:36;;;;;;;9.43;3.10;;;;;;;;;;5016849;28;100000;-75
2022/01/22 13:15:04;;;;;;;12.52;3.88;;;;;;;;;;5015213;28;100138;-75
2022/01/22 13:17:33;;;;;;;12.88;4.53;;;;;;;;;;5008181;28;100286;-75
2022/01/22 13:20:00;;;;;;;15.70;5.18;;;;;;;;;;5029078;28;103600;-75
2022/01/22 13:22:32;;;;;;;12.23;4.30;;;;;;;;;;4995797;28;99893;-75
2022/01/22 13:25:17;;;;;;;14.13;3.80;;;;;;;;;;5030275;28;100122;-76
2022/01/22 13:28:01;;;;;;;10.48;3.50;;;;;;;;;;5032288;28;100257;-75
2022/01/22 13:30:33;;;;;;;14.67;3.83;;;;;;;;;;5012180;28;100666;-76
2022/01/22 13:33:06;;;;;;;11.13;3.88;;;;;;;;;;4995796;28;100144;-75
2022/01/22 13:36:11;;;;;;;9.63;3.72;;;;;;;;;;4999907;28;100073;-75
2022/01/22 13:39:03;;;;;;;8.43;3.15;;;;;;;;;;5032537;27;101401;-76
2022/01/22 13:49:51;;;;;;;12.10;3.70;;;;;;;;;;5031667;28;100301;-75
2022/01/22 13:52:21;;;;;;;13.95;4.13;;;;;;;;;;5033557;27;100576;-75
2022/01/22 13:54:49;;;;;;;9.48;3.20;;;;;;;;;;5015939;28;100094;-76
2022/01/22 13:57:18;;;;;;;11.95;3.92;;;;;;;;;;5032454;28;100078;-76
2022/01/22 13:59:47;;;;;;;10.48;3.40;;;;;;;;;;5014536;28;100779;-75
2022/01/22 14:04:46;;;;;;;9.25;3.50;;;;;;;;;;5031271;28;100257;-75
2022/01/22 14:07:16;;;;;;;9.90;3.38;;;;;;;;;;4995248;28;99935;-75
2022/01/22 14:09:57;;;;;;;13.52;3.72;;;;;;;;;;5017282;28;100278;-75
2022/01/22 14:12:51;;;;;;;13.68;3.45;;;;;;;;;;5011348;28;100716;-76
2022/01/22 14:15:28;;;;;;;9.90;3.15;;;;;;;;;;5030595;28;101351;-75
2022/01/22 14:18:18;;;;;;;8.30;3.22;;;;;;;;;;5031877;28;100115;-75
2022/01/22 14:20:53;;;;;;;7.57;2.85;;;;;;;;;;5031989;28;100250;-75
2022/01/22 14:23:24;;;;;;;8.00;3.22;;;;;;;;;;5015273;28;102578;-76
2022/01/22 14:25:56;;;;;;;11.70;3.80;;;;;;;;;;5033571;27;100166;-76
2022/01/22 14:28:37;;;;;;;12.57;4.07;;;;;;;;;;5015458;28;99902;-76
2022/01/22 14:31:28;;;;;;;10.57;4.13;;;;;;;;;;5011491;28;100260;-75
2022/01/22 14:34:06;;;;;;;9.85;4.00;;;;;;;;;;5030378;28;101229;-75
2022/01/22 14:36:47;;;;;;;10.48;3.35;;;;;;;;;;5032065;28;100213;-75
2022/01/22 14:39:30;;;;;;;9.95;3.17;;;;;;;;;;5032040;28;100073;-76
2022/01/22 14:44:56;;;;;;;12.20;4.18;;;;;;;;;;5031636;28;100763;-76
2022/01/22 14:47:27;;;;;;;11.13;3.92;;;;;;;;;;5014873;28;100287;-76
2022/01/22 14:50:00;;;;;;;7.38;3.42;;;;;;;;;;5032835;27;100093;-76
2022/01/22 14:52:27;;;;;;;11.25;3.85;;;;;;;;;;5032787;28;100305;-76
2022/01/22 14:54:59;;;;;;;11.70;4.78;;;;;;;;;;5031215;28;100657;-75
2022/01/22 14:57:28;;;;;;;15.30;4.13;;;;;;;;;;5031667;28;99870;-75
2022/01/22 14:59:55;;;;;;;13.73;4.28;;;;;;;;;;5032254;28;100108;-76
2022/01/22 15:02:22;;;;;;;16.15;5.03;;;;;;;;;;5022636;28;104290;-75
2022/01/22 15:04:50;;;;;;;14.05;5.72;;;;;;;;;;5012066;28;101217;-75
2022/01/22 15:07:17;;;;;;;15.90;6.10;;;;;;;;;;5012139;28;100227;-76
2022/01/22 15:09:45;;;;;;;14.00;4.63;;;;;;;;;;5012378;28;100225;-75
2022/01/22 15:12:12;;;;;;;18.60;5.53;;;;;;;;;;5010938;28;100272;-75
2022/01/22 15:14:39;;;;;;;11.75;4.97;;;;;;;;;;5011195;28;100837;-76
2022/01/22 15:19:40;;;;;;;16.30;5.80;;;;;;;;;;4994886;28;100158;-76
2022/01/22 15:22:08;;;;;;;11.83;5.23;;;;;;;;;;5012128;28;100332;-76
2022/01/22 15:24:36;;;;;;;15.27;5.20;;;;;;;;;;5012512;28;100611;-75
2022/01/22 15:27:03;;;;;;;15.10;5.38;;;;;;;;;;5011127;28;100075;-76
2022/01/22 15:29:30;;;;;;;13.65;5.15;;;;;;;;;;5012543;28;99843;-75
2022/01/22 15:35:00;;;;;;;13.38;4.95;;;;;;;;;;5029793;28;100537;-76
2022/01/22 15:37:27;;;;;;;12.80;4.90;;;;;;;;;;5030830;28;100168;-76
2022/01/22 15:39:54;;;;;;;13.57;4.32;;;;;;;;;;5030580;28;100131;-75
2022/01/22 15:42:22;;;;;;;11.18;4.00;;;;;;;;;;5014044;28;100734;-75
2022/01/22 15:44:49;;;;;;;12.70;4.45;;;;;;;;;;5031848;27;100539;-75
2022/01/22 15:47:21;;;;;;;12.57;4.63;;;;;;;;;;5030950;28;100225;-75
2022/01/22 15:49:56;;;;;;;13.50;4.88;;;;;;;;;;5011930;28;100049;-76
2022/01/22 15:52:24;;;;;;;10.13;3.88;;;;;;;;;;5014769;28;100296;-75
2022/01/22 15:54:51;;;;;;;12.80;4.22;;;;;;;;;;5030317;28;101245;-75
2022/01/22 15:57:18;;;;;;;15.65;4.95;;;;;;;;;;5031485;27;100044;-76
2022/01/22 15:59:47;;;;;;;12.95;4.80;;;;;;;;;;5031104;28;100134;-75
2022/01/22 16:02:14;;;;;;;13.27;4.32;;;;;;;;;;5029961;28;100488;-76
2022/01/22 16:04:48;;;;;;;15.10;5.55;;;;;;;;;;5031218;28;100627;-75
2022/01/22 16:09:46;;;;;;;13.38;5.65;;;;;;;;;;4997379;28;100120;-75
2022/01/22 16:12:20;;;;;;;14.70;5.30;;;;;;;;;;5031678;28;100812;-76
2022/01/22 16:14:47;;;;;;;14.57;5.22;;;;;;;;;;5031079;28;100767;-76
2022/01/22 16:17:19;;;;;;;13.95;4.97;;;;;;;;;;5030557;28;100178;-76
2022/01/22 16:19:47;;;;;;;17.25;6.05;;;;;;;;;;5014308;28;100089;-75
2022/01/22 16:22:14;;;;;;;17.48;5.45;;;;;;;;;;5013518;28;100235;-76
2022/01/22 16:24:41;;;;;;;12.80;4.70;;;;;;;;;;5031641;28;100136;-76
2022/01/22 16:27:09;;;;;;;17.35;5.40;;;;;;;;;;5032293;28;100055;-76
2022/01/22 16:29:36;;;;;;;13.50;5.07;;;;;;;;;;5014228;28;100585;-76
2022/01/22 16:32:07;;;;;;;14.57;4.82;;;;;;;;;;5015612;28;100200;-76
2022/01/22 16:34:39;;;;;;;13.32;4.93;;;;;;;;;;5014067;28;100611;-76
2022/01/22 16:37:06;;;;;;;16.77;5.63;;;;;;;;;;5014116;28;100021;-76
2022/01/22 16:39:33;;;;;;;17.38;5.38;;;;;;;;;;4981549;28;100094;-76
2022/01/22 16:42:04;;;;;;;19.50;5.55;;;;;;;;;;5013811;28;101305;-76
2022/01/22 16:44:42;;;;;;;11.85;4.32;;;;;;;;;;5031299;28;100669;-76
2022/01/22 16:58:05;;;;;;;13.32;4.75;;;;;;;;;;5034191;28;100178;-76
2022/01/22 17:00:37;;;;;;;13.50;5.00;;;;;;;;;;5033865;28;100218;-76
2022/01/22 17:03:10;;;;;;;15.82;5.05;;;;;;;;;;5029530;28;100186;-76
2022/01/22 17:05:40;;;;;;;15.63;5.10;;;;;;;;;;5031793;28;101064;-76
2022/01/22 17:08:27;;;;;;;10.57;4.57;;;;;;;;;;5034971;27;99951;-76
2022/01/22 17:11:00;;;;;;;15.45;4.40;;;;;;;;;;5019612;28;100032;-76
2022/01/22 17:16:13;;;;;;;11.82;4.07;;;;;;;;;;5033130;28;103345;-75
2022/01/22 17:18:39;;;;;;;14.75;4.95;;;;;;;;;;5034954;28;100135;-75
2022/01/22 17:21:06;;;;;;;13.70;3.88;;;;;;;;;;5034935;27;100037;-76
2022/01/22 17:23:33;;;;;;;14.80;4.63;;;;;;;;;;5033027;28;100270;-76
2022/01/22 17:26:00;;;;;;;8.85;4.03;;;;;;;;;;5033136;28;100638;-76
2022/01/22 17:28:27;;;;;;;14.48;5.15;;;;;;;;;;5017020;28;100112;-76